createdAt,value
2023-04-17T00:00:16.899Z,15.45
2023-04-17T00:02:45.089Z,14.27
2023-04-17T00:05:11.928Z,14.45
2023-04-17T00:07:38.867Z,15.50
2023-04-17T00:10:07.776Z,15.13
2023-04-17T00:12:34.864Z,14.80
2023-04-17T00:15:01.825Z,14.82
2023-04-17T00:17:28.359Z,14.98
2023-04-17T00:19:54.855Z,15.30
2023-04-17T00:22:21.343Z,16.45
2023-04-17T00:24:48.092Z,14.73
2023-04-17T00:27:14.529Z,16.02
2023-04-17T00:29:40.983Z,15.68
2023-04-17T00:32:07.662Z,16.05
2023-04-17T00:34:34.206Z,14.90
2023-04-17T00:37:00.716Z,15.18
2023-04-17T00:39:27.376Z,14.88
2023-04-17T00:41:54.441Z,15.55
2023-04-17T00:44:20.911Z,15.30
2023-04-17T00:46:47.688Z,15.90
2023-04-17T00:49:14.231Z,15.57
2023-04-17T00:51:40.898Z,16.15
2023-04-17T00:54:08.214Z,14.98
2023-04-17T00:56:34.828Z,15.95
2023-04-17T00:59:03.947Z,14.82
2023-04-17T01:01:30.653Z,15.27
2023-04-17T01:03:59.868Z,15.63
2023-04-17T01:07:13.191Z,15.18
2023-04-17T01:09:39.875Z,15.05
2023-04-17T01:12:20.147Z,14.93
2023-04-17T01:14:46.981Z,14.52
2023-04-17T01:17:16.055Z,14.82
2023-04-17T01:19:42.584Z,15.30
2023-04-17T01:22:09.079Z,14.40
2023-04-17T01:24:37.143Z,14.88
2023-04-17T01:27:04.587Z,13.73
2023-04-17T01:29:31.087Z,15.63
2023-04-17T01:31:57.561Z,14.35
2023-04-17T01:34:24.001Z,14.27
2023-04-17T01:36:50.442Z,14.63
2023-04-17T01:39:17.638Z,14.93
2023-04-17T01:41:44.435Z,15.27
2023-04-17T01:44:11.084Z,14.55
2023-04-17T01:46:37.742Z,15.52
2023-04-17T01:49:04.409Z,15.30
2023-04-17T01:51:31.187Z,15.48
2023-04-17T01:53:57.596Z,14.40
2023-04-17T01:56:24.184Z,15.02
2023-04-17T01:58:51.654Z,15.65
2023-04-17T02:01:18.238Z,15.95
2023-04-17T02:03:44.843Z,15.63
2023-04-17T02:06:12.059Z,15.27
2023-04-17T02:08:38.541Z,15.82
2023-04-17T02:11:05.122Z,15.38
2023-04-17T02:13:31.819Z,15.48
2023-04-17T02:15:58.419Z,15.30
2023-04-17T02:18:24.900Z,15.25
2023-04-17T02:20:51.478Z,14.73
2023-04-17T02:23:17.980Z,15.77
2023-04-17T02:25:44.418Z,16.13
2023-04-17T02:28:10.931Z,14.93
2023-04-17T02:30:37.718Z,15.93
2023-04-17T02:33:04.190Z,15.05
2023-04-17T02:35:31.836Z,15.57
2023-04-17T02:37:58.379Z,16.00
2023-04-17T02:40:24.840Z,16.33
2023-04-17T02:42:51.306Z,15.57
2023-04-17T02:45:18.129Z,16.48
2023-04-17T02:47:44.599Z,16.15
2023-04-17T02:50:12.012Z,14.90
2023-04-17T02:52:39.758Z,15.77
2023-04-17T02:55:07.052Z,17.33
2023-04-17T02:57:33.797Z,16.38
2023-04-17T03:00:01.563Z,16.17
2023-04-17T03:02:30.647Z,16.02
2023-04-17T03:04:57.314Z,16.63
2023-04-17T03:07:23.823Z,16.65
2023-04-17T03:09:53.522Z,15.00
2023-04-17T03:12:20.348Z,16.88
2023-04-17T03:14:46.826Z,17.25
2023-04-17T03:17:14.159Z,15.82
2023-04-17T03:19:40.649Z,16.77
2023-04-17T03:22:07.165Z,17.10
2023-04-17T03:24:33.698Z,15.35
2023-04-17T03:27:00.961Z,15.80
2023-04-17T03:29:27.613Z,16.65
2023-04-17T03:31:54.095Z,16.80
2023-04-17T03:34:21.943Z,17.17
2023-04-17T03:36:48.811Z,16.73
2023-04-17T03:39:15.754Z,17.25
2023-04-17T03:41:42.480Z,17.38
2023-04-17T03:44:10.032Z,17.65
2023-04-17T03:46:37.612Z,16.40
2023-04-17T03:49:04.577Z,18.23
2023-04-17T03:51:32.014Z,18.67
2023-04-17T03:53:58.526Z,18.50
2023-04-17T03:56:25.742Z,18.00
2023-04-17T03:58:52.169Z,19.08
2023-04-17T04:01:18.682Z,18.55
2023-04-17T04:03:45.640Z,19.08
2023-04-17T04:06:12.342Z,18.95
2023-04-17T04:08:38.889Z,18.60
2023-04-17T04:11:05.505Z,20.55
2023-04-17T04:13:32.545Z,18.83
2023-04-17T04:15:59.099Z,19.95
2023-04-17T04:18:25.812Z,19.58
2023-04-17T04:20:52.259Z,20.98
2023-04-17T04:23:20.914Z,20.58
2023-04-17T04:25:49.576Z,20.02
2023-04-17T04:28:17.684Z,20.55
2023-04-17T04:30:50.336Z,20.30
2023-04-17T04:33:20.846Z,21.17
2023-04-17T04:35:48.919Z,21.85
2023-04-17T04:38:17.160Z,20.90
2023-04-17T04:40:50.045Z,21.90
2023-04-17T04:43:16.710Z,20.83
2023-04-17T04:45:43.352Z,20.92
2023-04-17T04:48:09.845Z,21.25
2023-04-17T04:50:36.396Z,21.67
2023-04-17T04:53:02.907Z,21.95
2023-04-17T04:55:30.572Z,21.63
2023-04-17T04:57:57.550Z,20.58
2023-04-17T05:00:24.789Z,21.88
2023-04-17T05:02:51.382Z,22.05
2023-04-17T05:05:17.916Z,21.83
2023-04-17T05:07:44.688Z,22.23
2023-04-17T05:10:11.203Z,21.45
2023-04-17T05:12:37.810Z,22.20
2023-04-17T05:15:05.758Z,23.33
2023-04-17T05:17:32.301Z,22.23
2023-04-17T05:19:59.001Z,22.05
2023-04-17T05:22:27.529Z,22.80
2023-04-17T05:24:54.065Z,22.25
2023-04-17T05:27:21.085Z,23.15
2023-04-17T05:29:47.824Z,23.83
2023-04-17T05:32:14.283Z,24.45
2023-04-17T05:34:41.002Z,23.00
2023-04-17T05:37:07.462Z,25.20
2023-04-17T05:39:34.364Z,24.02
2023-04-17T05:42:01.555Z,24.88
2023-04-17T05:44:28.137Z,25.42
2023-04-17T05:46:57.311Z,25.27
2023-04-17T05:49:23.829Z,26.63
2023-04-17T05:51:54.099Z,26.50
2023-04-17T05:54:20.791Z,28.02
2023-04-17T05:56:47.477Z,26.40
2023-04-17T05:59:14.136Z,25.23
2023-04-17T06:01:41.006Z,26.75
2023-04-17T06:04:08.309Z,27.45
2023-04-17T06:06:35.011Z,26.58
2023-04-17T06:09:01.494Z,26.48
2023-04-17T06:11:28.059Z,26.30
2023-04-17T06:13:54.531Z,25.65
2023-04-17T06:16:21.787Z,26.65
2023-04-17T06:18:48.461Z,27.27
2023-04-17T06:21:15.212Z,26.33
2023-04-17T06:23:41.662Z,26.33
2023-04-17T06:26:08.457Z,28.98
2023-04-17T06:28:34.896Z,26.38
2023-04-17T06:31:01.461Z,28.30
2023-04-17T06:33:27.945Z,26.80
2023-04-17T06:35:54.369Z,28.98
2023-04-17T06:38:20.866Z,27.92
2023-04-17T06:40:47.721Z,27.38
2023-04-17T06:43:17.310Z,28.20
2023-04-17T06:45:43.935Z,28.45
2023-04-17T06:48:10.380Z,27.20
2023-04-17T06:50:37.352Z,29.27
2023-04-17T06:53:03.789Z,29.00
2023-04-17T06:55:30.376Z,27.48
2023-04-17T06:57:56.848Z,26.92
2023-04-17T07:00:23.384Z,26.80
2023-04-17T07:02:50.838Z,27.08
2023-04-17T07:05:17.597Z,27.45
2023-04-17T07:07:43.992Z,28.73
2023-04-17T07:10:10.687Z,27.27
2023-04-17T07:12:37.432Z,28.85
2023-04-17T07:15:04.136Z,28.60
2023-04-17T07:17:30.875Z,30.13
2023-04-17T07:19:57.405Z,25.58
2023-04-17T07:22:25.260Z,24.60
2023-04-17T07:24:53.267Z,27.77
2023-04-17T07:27:19.929Z,24.77
2023-04-17T07:29:52.783Z,24.40
2023-04-17T07:32:19.354Z,25.15
2023-04-17T07:34:46.029Z,24.67
2023-04-17T07:37:12.465Z,24.77
2023-04-17T07:39:39.017Z,25.42
2023-04-17T07:42:08.761Z,24.90
2023-04-17T07:44:35.553Z,24.80
2023-04-17T07:47:02.155Z,23.40
2023-04-17T07:49:28.794Z,23.83
2023-04-17T07:51:55.708Z,22.40
2023-04-17T07:54:22.157Z,23.08
2023-04-17T07:56:49.442Z,24.65
2023-04-17T07:59:19.088Z,25.65
2023-04-17T08:01:45.733Z,25.13
2023-04-17T08:04:12.500Z,25.05
2023-04-17T08:06:39.198Z,24.58
2023-04-17T08:09:05.850Z,24.92
2023-04-17T08:11:40.020Z,23.58
2023-04-17T08:14:12.665Z,25.10
2023-04-17T08:16:39.240Z,24.98
2023-04-17T08:19:05.768Z,24.13
2023-04-17T08:21:32.744Z,25.02
2023-04-17T08:23:59.271Z,22.77
2023-04-17T08:26:25.746Z,24.00
2023-04-17T08:28:53.649Z,24.40
2023-04-17T08:31:20.423Z,25.67
2023-04-17T08:33:47.007Z,26.08
2023-04-17T08:36:13.524Z,24.83
2023-04-17T08:38:40.900Z,23.60
2023-04-17T08:41:13.380Z,21.58
2023-04-17T08:43:40.234Z,20.63
2023-04-17T08:46:07.547Z,22.98
2023-04-17T08:48:34.210Z,21.08
2023-04-17T08:51:03.025Z,21.25
2023-04-17T08:53:29.547Z,19.42
2023-04-17T08:55:58.949Z,22.45
2023-04-17T08:58:28.662Z,22.50
2023-04-17T09:00:55.917Z,22.83
2023-04-17T09:03:22.650Z,21.27
2023-04-17T09:05:49.196Z,23.17
2023-04-17T09:08:20.450Z,22.65
2023-04-17T09:10:48.739Z,21.42
2023-04-17T09:13:20.147Z,23.02
2023-04-17T09:16:02.931Z,21.10
2023-04-17T09:18:31.284Z,22.92
2023-04-17T09:21:02.109Z,23.00
2023-04-17T09:23:30.305Z,22.13
2023-04-17T09:26:07.307Z,20.17
2023-04-17T09:28:39.532Z,21.85
2023-04-17T09:31:24.805Z,20.92
2023-04-17T09:34:07.465Z,21.15
2023-04-17T09:36:36.913Z,21.35
2023-04-17T09:39:16.162Z,20.88
2023-04-17T09:41:42.693Z,21.63
2023-04-17T09:44:12.422Z,21.33
2023-04-17T09:46:45.727Z,20.38
2023-04-17T09:49:19.043Z,20.80
2023-04-17T09:51:46.689Z,20.02
2023-04-17T09:54:14.960Z,19.33
2023-04-17T09:56:42.166Z,18.52
2023-04-17T09:59:09.891Z,17.13
2023-04-17T10:01:37.927Z,17.13
2023-04-17T10:04:05.360Z,15.00
2023-04-17T10:06:33.233Z,14.80
2023-04-17T10:09:00.231Z,14.00
2023-04-17T10:11:34.091Z,15.45
2023-04-17T10:14:12.362Z,14.57
2023-04-17T10:16:41.027Z,15.40
2023-04-17T10:19:27.652Z,14.35
2023-04-17T10:22:15.872Z,15.35
2023-04-17T10:24:43.095Z,14.45
2023-04-17T10:27:41.940Z,13.73
2023-04-17T10:30:12.601Z,13.88
2023-04-17T10:32:41.399Z,13.77
2023-04-17T10:35:17.170Z,13.23
2023-04-17T10:37:53.328Z,13.27
2023-04-17T10:40:23.777Z,12.45
2023-04-17T10:43:17.783Z,12.10
2023-04-17T10:46:13.175Z,12.75
2023-04-17T10:48:53.080Z,14.00
2023-04-17T10:51:27.062Z,11.20
2023-04-17T10:54:01.033Z,12.55
2023-04-17T10:56:30.528Z,11.60
2023-04-17T10:59:05.432Z,11.85
2023-04-17T11:01:47.989Z,12.20
2023-04-17T11:04:26.733Z,12.10
2023-04-17T11:06:54.206Z,13.43
2023-04-17T11:09:22.186Z,13.23
2023-04-17T11:11:48.696Z,12.88
2023-04-17T11:14:20.511Z,12.02
2023-04-17T11:16:49.159Z,12.77
2023-04-17T11:19:21.365Z,13.60
2023-04-17T11:21:49.915Z,12.27
2023-04-17T11:24:30.049Z,11.77
2023-04-17T11:26:59.733Z,12.73
2023-04-17T11:29:27.130Z,12.40
2023-04-17T11:31:56.275Z,12.15
2023-04-17T11:34:24.942Z,11.43
2023-04-17T11:37:01.406Z,11.95
2023-04-17T11:39:29.844Z,12.20
2023-04-17T11:41:57.222Z,12.27
2023-04-17T11:44:24.482Z,13.68
2023-04-17T11:47:00.837Z,11.75
2023-04-17T11:49:31.757Z,12.27
2023-04-17T11:52:02.264Z,13.65
2023-04-17T11:54:30.622Z,13.45
2023-04-17T11:57:11.324Z,13.27
2023-04-17T11:59:39.757Z,13.13
2023-04-17T12:02:07.947Z,13.18
2023-04-17T12:04:36.471Z,13.30
2023-04-17T12:07:07.738Z,13.02
2023-04-17T12:09:35.488Z,13.20
2023-04-17T12:12:05.512Z,13.93
2023-04-17T12:14:32.397Z,13.88
2023-04-17T12:16:59.359Z,13.95
2023-04-17T12:19:29.224Z,13.95
2023-04-17T12:21:56.670Z,13.65
2023-04-17T12:24:24.886Z,14.07
2023-04-17T12:26:52.460Z,14.38
2023-04-17T12:29:26.570Z,13.00
2023-04-17T12:31:59.448Z,12.52
2023-04-17T12:34:27.691Z,12.02
2023-04-17T12:36:54.583Z,12.77
2023-04-17T12:39:21.413Z,12.52
2023-04-17T12:41:48.126Z,14.02
2023-04-17T12:44:15.068Z,15.52
2023-04-17T12:46:42.156Z,14.85
2023-04-17T12:49:08.923Z,14.80
2023-04-17T12:51:38.062Z,15.23
2023-04-17T12:54:04.756Z,15.10
2023-04-17T12:56:31.733Z,15.00
2023-04-17T12:59:00.615Z,15.68
2023-04-17T13:01:28.706Z,14.25
2023-04-17T13:03:55.390Z,14.40
2023-04-17T13:06:22.066Z,12.68
2023-04-17T13:08:48.601Z,13.57
2023-04-17T13:11:15.022Z,13.52
2023-04-17T13:13:41.782Z,12.35
2023-04-17T13:16:09.883Z,11.85
2023-04-17T13:18:37.525Z,13.25
2023-04-17T13:21:04.267Z,12.45
2023-04-17T13:23:31.006Z,11.68
2023-04-17T13:25:57.498Z,12.35
2023-04-17T13:28:23.948Z,12.40
2023-04-17T13:30:50.402Z,12.68
2023-04-17T13:33:16.886Z,14.32
2023-04-17T13:35:43.349Z,13.50
2023-04-17T13:38:09.991Z,14.10
2023-04-17T13:40:38.728Z,15.48
2023-04-17T13:43:06.733Z,15.30
2023-04-17T13:45:33.284Z,15.75
2023-04-17T13:48:00.401Z,15.70
2023-04-17T13:50:27.121Z,16.00
2023-04-17T13:52:53.764Z,17.52
2023-04-17T13:55:20.488Z,17.55
2023-04-17T13:57:46.979Z,17.65
2023-04-17T14:00:14.168Z,19.00
2023-04-17T14:02:40.871Z,18.98
2023-04-17T14:05:07.845Z,19.75
2023-04-17T14:07:34.407Z,20.42
2023-04-17T14:10:00.935Z,20.17
2023-04-17T14:12:27.558Z,20.98
2023-04-17T14:14:54.287Z,20.83
2023-04-17T14:17:21.657Z,21.25
2023-04-17T14:19:48.218Z,22.35
2023-04-17T14:22:14.695Z,22.50
2023-04-17T14:24:41.493Z,22.65
2023-04-17T14:27:08.524Z,23.00
2023-04-17T14:29:35.377Z,22.02
2023-04-17T14:32:01.843Z,23.67
2023-04-17T14:34:28.723Z,24.67
2023-04-17T14:36:56.854Z,23.77
2023-04-17T14:39:24.640Z,23.70
2023-04-17T14:41:51.115Z,22.67
2023-04-17T14:44:17.738Z,22.27
2023-04-17T14:46:44.562Z,21.90
2023-04-17T14:49:11.350Z,21.13
2023-04-17T14:51:38.052Z,22.38
2023-04-17T14:54:05.076Z,22.52
2023-04-17T14:56:31.547Z,22.40
2023-04-17T14:58:57.987Z,20.80
2023-04-17T15:01:24.550Z,20.45
2023-04-17T15:03:51.442Z,19.83
2023-04-17T15:06:18.852Z,20.48
2023-04-17T15:08:46.162Z,21.00
2023-04-17T15:11:12.961Z,20.58
2023-04-17T15:13:40.414Z,22.30
2023-04-17T15:16:09.516Z,20.50
2023-04-17T15:18:36.278Z,20.25
2023-04-17T15:21:02.752Z,22.10
2023-04-17T15:23:29.884Z,20.20
2023-04-17T15:25:57.852Z,21.15
2023-04-17T15:28:25.237Z,20.75
2023-04-17T15:30:51.758Z,20.67
2023-04-17T15:33:18.325Z,20.00
2023-04-17T15:35:44.939Z,20.98
2023-04-17T15:38:12.191Z,21.40
2023-04-17T15:40:38.715Z,23.05
2023-04-17T15:43:05.330Z,25.88
2023-04-17T15:53:15.188Z,28.25
2023-04-17T15:55:41.702Z,28.33
2023-04-17T15:58:08.356Z,29.85
2023-04-17T16:00:34.819Z,28.33
2023-04-17T16:03:01.424Z,27.77
2023-04-17T16:05:29.730Z,25.85
2023-04-17T16:07:56.152Z,26.52
2023-04-17T16:10:22.620Z,25.33
2023-04-17T16:12:49.175Z,26.55
2023-04-17T16:15:17.266Z,26.75
2023-04-17T16:17:45.500Z,24.65
2023-04-17T16:20:12.791Z,27.05
2023-04-17T16:22:39.264Z,28.90
2023-04-17T16:25:06.722Z,28.08
2023-04-17T16:27:33.358Z,25.40
2023-04-17T16:29:59.948Z,23.42
2023-04-17T16:32:27.464Z,20.52
2023-04-17T16:34:54.188Z,22.65
2023-04-17T16:37:20.688Z,21.52
2023-04-17T16:39:47.322Z,21.23
2023-04-17T16:42:14.483Z,21.75
2023-04-17T16:44:40.993Z,20.98
2023-04-17T16:47:13.438Z,22.75
2023-04-17T16:49:41.050Z,21.95
2023-04-17T16:52:07.687Z,20.40
2023-04-17T16:54:34.258Z,21.77
2023-04-17T16:57:00.852Z,21.63
2023-04-17T16:59:27.282Z,20.38
2023-04-17T17:01:53.955Z,19.50
2023-04-17T17:04:20.586Z,19.27
2023-04-17T17:06:47.130Z,19.23
2023-04-17T17:09:13.889Z,21.83
2023-04-17T17:11:40.746Z,20.73
2023-04-17T17:14:07.296Z,22.20
2023-04-17T17:16:33.854Z,22.45
2023-04-17T17:19:00.573Z,22.10
2023-04-17T17:21:28.081Z,23.23
2023-04-17T17:23:54.533Z,22.83
2023-04-17T17:26:21.028Z,22.48
2023-04-17T17:28:51.121Z,23.50
2023-04-17T17:31:18.151Z,22.95
2023-04-17T17:33:45.196Z,22.23
2023-04-17T17:36:12.407Z,22.38
2023-04-17T17:38:38.982Z,23.08
2023-04-17T17:41:05.759Z,23.33
2023-04-17T17:43:32.350Z,22.15
2023-04-17T17:45:58.898Z,22.75
2023-04-17T17:48:25.829Z,22.92
2023-04-17T17:50:57.125Z,23.75
2023-04-17T17:53:26.384Z,22.33
2023-04-17T17:55:55.003Z,21.90
2023-04-17T17:58:21.974Z,23.73
2023-04-17T18:00:49.272Z,23.42
2023-04-17T18:03:16.727Z,24.67
2023-04-17T18:05:44.309Z,24.23
2023-04-17T18:08:10.807Z,23.13
2023-04-17T18:10:37.384Z,22.25
2023-04-17T18:13:03.884Z,22.20
2023-04-17T18:15:30.395Z,21.08
2023-04-17T18:17:57.029Z,23.65
2023-04-17T18:20:23.743Z,22.95
2023-04-17T18:22:51.528Z,23.40
2023-04-17T18:25:18.234Z,22.60
2023-04-17T18:27:45.328Z,22.10
2023-04-17T18:30:12.317Z,21.33
2023-04-17T18:32:38.893Z,21.60
2023-04-17T18:35:06.088Z,21.90
2023-04-17T18:37:32.914Z,23.67
2023-04-17T18:39:59.530Z,23.88
2023-04-17T18:42:26.007Z,23.80
2023-04-17T18:44:52.452Z,23.63
2023-04-17T18:47:18.912Z,25.15
2023-04-17T18:49:45.377Z,26.00
2023-04-17T18:52:11.990Z,26.73
2023-04-17T18:54:38.884Z,25.33
2023-04-17T18:57:05.403Z,26.38
2023-04-17T18:59:31.920Z,27.95
2023-04-17T19:01:58.560Z,29.08
2023-04-17T19:04:25.093Z,28.77
2023-04-17T19:06:51.537Z,27.48
2023-04-17T19:09:18.067Z,28.60
2023-04-17T19:11:44.529Z,29.42
2023-04-17T19:14:11.094Z,27.73
2023-04-17T19:16:37.905Z,28.65
2023-04-17T19:19:05.780Z,30.50
2023-04-17T19:21:32.775Z,30.55
2023-04-17T19:23:59.271Z,30.42
2023-04-17T19:26:25.867Z,29.38
2023-04-17T19:28:52.424Z,29.17
2023-04-17T19:31:18.967Z,29.38
2023-04-17T19:33:45.482Z,29.48
2023-04-17T19:36:12.089Z,31.67
2023-04-17T19:38:38.632Z,31.85
2023-04-17T19:41:17.350Z,31.20
2023-04-17T19:43:51.210Z,29.08
2023-04-17T19:46:19.501Z,30.48
2023-04-17T19:48:46.857Z,31.33
2023-04-17T19:51:14.528Z,30.75
2023-04-17T19:53:42.587Z,30.40
2023-04-17T19:56:10.452Z,33.40
2023-04-17T19:58:38.040Z,30.90
2023-04-17T20:01:04.707Z,31.65
2023-04-17T20:03:32.338Z,32.28
2023-04-17T20:05:59.318Z,31.05
2023-04-17T20:08:26.370Z,29.65
2023-04-17T20:10:52.816Z,30.20
2023-04-17T20:13:19.301Z,30.25
2023-04-17T20:15:45.772Z,31.90
2023-04-17T20:18:12.292Z,32.85
2023-04-17T20:20:39.190Z,31.40
2023-04-17T20:23:05.936Z,29.13
2023-04-17T20:25:32.393Z,30.73
2023-04-17T20:27:58.888Z,28.73
2023-04-17T20:30:25.532Z,29.40
2023-04-17T20:32:52.099Z,30.90
2023-04-17T20:35:20.901Z,30.50
2023-04-17T20:37:47.547Z,29.90
2023-04-17T20:40:14.367Z,29.58
2023-04-17T20:42:42.164Z,30.30
2023-04-17T20:45:09.774Z,29.70
2023-04-17T20:47:37.682Z,28.75
2023-04-17T20:50:07.660Z,29.10
2023-04-17T20:52:34.544Z,28.25
2023-04-17T20:55:01.060Z,28.02
2023-04-17T20:57:28.628Z,27.95
2023-04-17T20:59:55.057Z,26.90
2023-04-17T21:02:22.040Z,26.80
2023-04-17T21:04:48.948Z,26.88
2023-04-17T21:07:16.008Z,26.63
2023-04-17T21:09:42.592Z,25.38
2023-04-17T21:12:09.287Z,26.55
2023-04-17T21:14:36.640Z,25.90
2023-04-17T21:17:03.141Z,25.45
2023-04-17T21:19:30.826Z,26.67
2023-04-17T21:21:58.341Z,26.83
2023-04-17T21:24:25.292Z,25.35
2023-04-17T21:26:53.317Z,24.75
2023-04-17T21:29:19.794Z,24.73
2023-04-17T21:31:46.375Z,24.85
2023-04-17T21:34:13.109Z,23.10
2023-04-17T21:36:39.689Z,24.15
2023-04-17T21:39:07.137Z,23.55
2023-04-17T21:41:33.733Z,22.80
2023-04-17T21:44:02.468Z,25.05
2023-04-17T21:46:29.421Z,24.52
2023-04-17T21:48:56.221Z,22.85
2023-04-17T21:51:23.213Z,22.48
2023-04-17T21:53:49.794Z,22.55
2023-04-17T21:56:16.268Z,23.42
2023-04-17T21:58:42.706Z,23.25
2023-04-17T22:01:09.227Z,22.10
2023-04-17T22:03:35.748Z,23.35
2023-04-17T22:06:02.257Z,23.17
2023-04-17T22:08:28.806Z,21.73
2023-04-17T22:10:55.370Z,22.15
2023-04-17T22:13:21.806Z,22.25
2023-04-17T22:15:48.777Z,22.15
2023-04-17T22:18:15.865Z,22.88
2023-04-17T22:20:42.642Z,22.33
2023-04-17T22:23:09.110Z,23.05
2023-04-17T22:25:36.206Z,22.85
2023-04-17T22:28:02.752Z,23.67
2023-04-17T22:30:29.202Z,21.77
2023-04-17T22:32:57.285Z,22.02
2023-04-17T22:35:23.856Z,22.65
2023-04-17T22:37:50.370Z,21.40
2023-04-17T22:40:16.937Z,22.42
2023-04-17T22:42:43.435Z,20.33
2023-04-17T22:45:10.047Z,20.80
2023-04-17T22:47:36.511Z,22.88
2023-04-17T22:50:03.393Z,22.10
2023-04-17T22:52:29.900Z,21.67
2023-04-17T22:54:56.414Z,20.27
2023-04-17T22:57:22.863Z,21.00
2023-04-17T22:59:49.381Z,20.58
2023-04-17T23:02:16.137Z,20.20
2023-04-17T23:04:42.717Z,20.70
2023-04-17T23:07:09.204Z,20.65
2023-04-17T23:09:35.671Z,19.88
2023-04-17T23:12:02.249Z,19.85
2023-04-17T23:14:28.715Z,19.50
2023-04-17T23:16:55.179Z,20.80
2023-04-17T23:19:22.489Z,18.48
2023-04-17T23:21:49.091Z,18.65
2023-04-17T23:24:15.671Z,18.48
2023-04-17T23:26:42.225Z,18.75
2023-04-17T23:29:08.732Z,18.63
2023-04-17T23:31:37.128Z,17.63
2023-04-17T23:34:03.600Z,18.65
2023-04-17T23:36:30.580Z,19.52
2023-04-17T23:38:57.009Z,19.17
2023-04-17T23:41:23.701Z,19.83
2023-04-17T23:43:51.298Z,19.20
2023-04-17T23:46:18.495Z,19.63
2023-04-17T23:48:44.956Z,19.35
2023-04-17T23:51:11.491Z,19.08
2023-04-17T23:53:37.965Z,19.15
2023-04-17T23:56:04.526Z,19.50
2023-04-17T23:58:30.948Z,17.30
